X  Κλείσε Στοιχεία αεροπορικών μετεωρολογικών δεδομένων METAR     LGTS Thessaloniki Macedonia International Airport
θερμοκρασία
29°C θερμοκρασία
22°C Σημείο δρόσου
66% Υγρασία



Ανεμος
8 KM/H
5 MPH
2 M/S
4 KTS



270°
D
Τρέχουσες συνθήκες

Μερικώς συννεφιασμένος Μερικώς συννεφιασμένος
πίεση 1009.82 (hPa) - 29.82 (inHg)
Ορατότητα 6 (μίλι) - 9.7 (km)
Aεροδρόμιο
Κωδικός αεροδρομίου LGTS

Τοποθεσία: Thessaloniki Macedonia International Airport
Απόσταση: 85 (km)

Metar:
LGTS 240620Z 27004KT 9999 FEW030 29/22 Q1010 NOSIG

ώρα: 24-07-2024 09:20 EEST